Stratton, Colorado
Current Conditions -  °F | °C
As of 8:53 AM on Friday 24 Oct 2014 (Local Time) from KITR Reporting Station
Clear Clear  
Wind Chill: 63°   Ceiling: Unl
Heat Index: 63°   Visibility: 10mi
Dew Point: 39°   Wind: 7mph
Humidity: 41%   Direction: 270°W
Pressure: 30.12"   Gusts: NA
Location:  39.3°N, 102.6°W
Report Text: KITR 241453Z AUTO 27006KT 10SM CLR 17/04 A3012 RMK AO2 SLP166 T01720039 53010
Loading
Personal Weather Stations






























Interactive Weather Map
Tropical Storm Tracking
New forecast layout! Learn more

10-Day Weather Forecast

Advertisements
Track Severe Weather on mobile